createdAt,value
2023-05-09T00:01:20.740Z,55.27
2023-05-09T00:03:47.767Z,55.02
2023-05-09T00:06:15.543Z,55.34
2023-05-09T00:08:42.322Z,54.84
2023-05-09T00:11:09.044Z,54.33
2023-05-09T00:13:35.944Z,54.79
2023-05-09T00:16:03.557Z,55.44
2023-05-09T00:18:31.357Z,54.54
2023-05-09T00:20:58.058Z,54.84
2023-05-09T00:23:24.771Z,54.91
2023-05-09T00:25:51.478Z,54.93
2023-05-09T00:28:18.175Z,54.60
2023-05-09T00:30:44.924Z,54.53
2023-05-09T00:33:11.707Z,54.75
2023-05-09T00:35:38.344Z,55.47
2023-05-09T00:38:05.015Z,55.02
2023-05-09T00:40:31.638Z,54.85
2023-05-09T00:42:59.782Z,54.73
2023-05-09T00:45:26.685Z,54.79
2023-05-09T00:47:53.850Z,54.65
2023-05-09T00:50:20.969Z,54.74
2023-05-09T00:52:47.651Z,54.43
2023-05-09T00:55:16.247Z,54.47
2023-05-09T00:57:43.097Z,54.37
2023-05-09T01:00:13.314Z,54.23
2023-05-09T01:02:46.747Z,53.68
2023-05-09T01:05:13.945Z,54.25
2023-05-09T01:08:06.708Z,53.67
2023-05-09T01:11:05.645Z,53.83
2023-05-09T01:13:44.623Z,54.11
2023-05-09T01:16:23.886Z,54.21
2023-05-09T01:19:01.178Z,53.77
2023-05-09T01:21:30.533Z,53.25
2023-05-09T01:24:13.004Z,53.24
2023-05-09T01:26:52.380Z,52.50
2023-05-09T01:29:34.324Z,52.30
2023-05-09T01:32:08.648Z,51.77
2023-05-09T01:34:37.248Z,53.18
2023-05-09T01:37:05.810Z,53.27
2023-05-09T01:39:34.457Z,52.39
2023-05-09T01:42:03.700Z,52.78
2023-05-09T01:44:35.495Z,52.88
2023-05-09T01:47:03.903Z,52.92
2023-05-09T01:49:33.667Z,52.46
2023-05-09T01:52:03.811Z,52.28
2023-05-09T01:54:31.216Z,52.60
2023-05-09T01:56:59.831Z,51.80
2023-05-09T01:59:29.038Z,52.21
2023-05-09T02:01:56.685Z,52.45
2023-05-09T02:04:24.000Z,52.31
2023-05-09T02:06:52.140Z,52.29
2023-05-09T02:09:20.173Z,52.23
2023-05-09T02:11:47.128Z,51.67
2023-05-09T02:14:14.147Z,51.45
2023-05-09T02:16:42.102Z,50.86
2023-05-09T02:19:08.766Z,50.78
2023-05-09T02:21:35.835Z,50.95
2023-05-09T02:24:02.747Z,51.08
2023-05-09T02:26:29.719Z,51.32
2023-05-09T02:28:56.989Z,51.49
2023-05-09T02:31:28.093Z,51.77
2023-05-09T02:33:55.534Z,51.62
2023-05-09T02:36:23.441Z,51.77
2023-05-09T02:38:50.227Z,51.53
2023-05-09T02:41:17.351Z,51.06
2023-05-09T02:43:43.996Z,50.85
2023-05-09T02:46:10.959Z,51.16
2023-05-09T02:48:37.750Z,51.41
2023-05-09T02:51:04.559Z,51.83
2023-05-09T02:53:31.251Z,51.36
2023-05-09T02:55:58.678Z,51.37
2023-05-09T02:58:25.479Z,51.54
2023-05-09T03:00:52.075Z,51.54
2023-05-09T03:03:19.266Z,51.10
2023-05-09T03:05:46.433Z,51.66
2023-05-09T03:08:13.155Z,52.01
2023-05-09T03:10:39.853Z,53.50
2023-05-09T03:13:06.614Z,53.41
2023-05-09T03:15:33.338Z,53.98
2023-05-09T03:18:00.094Z,54.21
2023-05-09T03:20:27.574Z,53.94
2023-05-09T03:22:54.258Z,53.94
2023-05-09T03:25:21.034Z,54.22
2023-05-09T03:27:47.619Z,53.51
2023-05-09T03:30:15.032Z,53.06
2023-05-09T03:32:41.736Z,53.14
2023-05-09T03:35:08.616Z,52.69
2023-05-09T03:37:35.214Z,51.75
2023-05-09T03:40:01.919Z,51.36
2023-05-09T03:42:28.522Z,50.78
2023-05-09T03:44:55.191Z,50.91
2023-05-09T03:47:21.800Z,50.64
2023-05-09T03:49:48.456Z,50.94
2023-05-09T03:52:15.067Z,50.44
2023-05-09T03:54:41.695Z,50.24
2023-05-09T03:57:08.293Z,50.29
2023-05-09T03:59:34.928Z,50.61
2023-05-09T04:02:01.645Z,50.81
2023-05-09T04:04:28.443Z,50.53
2023-05-09T04:06:55.085Z,51.03
2023-05-09T04:09:21.939Z,50.82
2023-05-09T04:11:48.572Z,50.71
2023-05-09T04:14:15.257Z,50.66
2023-05-09T04:16:42.612Z,50.44
2023-05-09T04:19:09.397Z,51.41
2023-05-09T04:21:36.034Z,52.48
2023-05-09T04:24:02.616Z,51.70
2023-05-09T04:26:30.050Z,52.51
2023-05-09T04:28:56.810Z,51.37
2023-05-09T04:31:23.474Z,51.83
2023-05-09T04:33:50.122Z,53.09
2023-05-09T04:36:17.182Z,52.63
2023-05-09T04:38:43.791Z,52.40
2023-05-09T04:41:10.465Z,52.82
2023-05-09T04:43:37.056Z,52.25
2023-05-09T04:46:03.824Z,52.20
2023-05-09T04:48:30.752Z,52.90
2023-05-09T04:50:57.357Z,52.98
2023-05-09T04:53:23.952Z,53.80
2023-05-09T04:55:51.999Z,52.68
2023-05-09T04:58:19.089Z,52.07
2023-05-09T05:00:46.509Z,52.01
2023-05-09T05:03:13.285Z,51.86
2023-05-09T05:05:41.666Z,51.51
2023-05-09T05:08:08.389Z,51.37
2023-05-09T05:10:35.057Z,51.33
2023-05-09T05:13:01.980Z,51.65
2023-05-09T05:15:28.612Z,51.61
2023-05-09T05:17:55.442Z,51.33
2023-05-09T05:20:22.074Z,51.42
2023-05-09T05:22:48.681Z,51.38
2023-05-09T05:25:16.112Z,51.39
2023-05-09T05:27:42.973Z,51.52
2023-05-09T05:30:10.025Z,50.73
2023-05-09T05:32:36.721Z,54.03
2023-05-09T05:35:04.992Z,54.08
2023-05-09T05:37:31.924Z,53.65
2023-05-09T05:39:58.550Z,54.11
2023-05-09T05:42:25.431Z,53.87
2023-05-09T05:44:52.096Z,54.35
2023-05-09T05:47:18.710Z,54.04
2023-05-09T05:49:45.915Z,54.68
2023-05-09T05:52:12.525Z,53.89
2023-05-09T05:54:39.140Z,53.79
2023-05-09T05:57:05.769Z,53.79
2023-05-09T05:59:32.398Z,53.35
2023-05-09T06:01:59.008Z,53.07
2023-05-09T06:04:25.675Z,53.00
2023-05-09T06:06:52.513Z,52.92
2023-05-09T06:09:19.117Z,52.79
2023-05-09T06:11:45.743Z,53.37
2023-05-09T06:14:12.385Z,52.95
2023-05-09T06:16:39.081Z,53.24
2023-05-09T06:19:05.710Z,52.95
2023-05-09T06:21:34.190Z,52.35
2023-05-09T06:24:08.394Z,52.52
2023-05-09T06:26:41.298Z,51.90
2023-05-09T06:29:08.202Z,51.64
2023-05-09T06:31:39.173Z,51.41
2023-05-09T06:34:06.438Z,51.03
2023-05-09T06:36:33.514Z,50.54
2023-05-09T06:39:00.468Z,51.08
2023-05-09T06:41:27.512Z,51.63
2023-05-09T06:43:54.161Z,51.66
2023-05-09T06:46:20.953Z,51.38
2023-05-09T06:48:47.977Z,50.94
2023-05-09T06:51:14.628Z,52.21
2023-05-09T06:53:41.307Z,51.56
2023-05-09T06:56:08.066Z,53.16
2023-05-09T06:58:34.780Z,52.93
2023-05-09T07:01:01.437Z,52.38
2023-05-09T07:03:28.042Z,52.67
2023-05-09T07:05:56.862Z,53.06
2023-05-09T07:08:23.468Z,52.08
2023-05-09T07:10:50.356Z,53.04
2023-05-09T07:13:17.018Z,51.78
2023-05-09T07:15:43.988Z,52.68
2023-05-09T07:18:10.853Z,51.13
2023-05-09T07:20:37.535Z,51.23
2023-05-09T07:23:06.038Z,51.38
2023-05-09T07:25:32.979Z,50.92
2023-05-09T07:27:59.616Z,51.28
2023-05-09T07:30:26.301Z,51.08
2023-05-09T07:32:53.013Z,49.87
2023-05-09T07:35:20.076Z,49.83
2023-05-09T07:37:46.859Z,49.50
2023-05-09T07:40:14.145Z,49.56
2023-05-09T07:42:41.147Z,48.52
2023-05-09T07:45:08.135Z,48.16
2023-05-09T07:47:34.875Z,48.89
2023-05-09T07:50:01.663Z,48.72
2023-05-09T07:52:28.314Z,48.98
2023-05-09T07:54:54.931Z,48.58
2023-05-09T07:57:21.559Z,47.87
2023-05-09T07:59:48.166Z,47.36
2023-05-09T08:02:14.796Z,47.52
2023-05-09T08:04:41.850Z,46.22
2023-05-09T08:07:09.174Z,47.63
2023-05-09T08:09:36.063Z,47.48
2023-05-09T08:12:02.738Z,45.52
2023-05-09T08:14:29.843Z,46.41
2023-05-09T08:16:56.529Z,46.09
2023-05-09T08:19:26.213Z,46.37
2023-05-09T08:21:53.407Z,46.43
2023-05-09T08:24:20.383Z,46.63
2023-05-09T08:26:47.138Z,45.00
2023-05-09T08:29:13.907Z,45.64
2023-05-09T08:31:41.164Z,45.97
2023-05-09T08:34:07.924Z,45.63
2023-05-09T08:36:34.661Z,45.20
2023-05-09T08:39:01.389Z,45.54
2023-05-09T08:41:28.345Z,45.09
2023-05-09T08:43:55.942Z,45.36
2023-05-09T08:46:34.138Z,45.55
2023-05-09T08:49:01.585Z,43.97
2023-05-09T08:51:30.142Z,46.06
2023-05-09T08:53:57.249Z,44.15
2023-05-09T08:56:24.531Z,43.54
2023-05-09T08:58:51.775Z,45.01
2023-05-09T09:01:19.531Z,44.71
2023-05-09T09:03:49.519Z,46.05
2023-05-09T09:06:16.977Z,44.86
2023-05-09T09:08:45.793Z,45.35
2023-05-09T09:11:15.051Z,44.84
2023-05-09T09:13:43.898Z,44.67
2023-05-09T09:16:16.048Z,44.06
2023-05-09T09:18:42.953Z,45.00
2023-05-09T09:21:12.317Z,43.95
2023-05-09T09:23:43.033Z,44.41
2023-05-09T09:26:09.811Z,43.94
2023-05-09T09:28:36.541Z,44.91
2023-05-09T09:31:19.880Z,43.14
2023-05-09T09:33:46.612Z,42.83
2023-05-09T09:36:13.331Z,43.57
2023-05-09T09:38:44.071Z,42.93
2023-05-09T09:41:12.852Z,43.23
2023-05-09T09:43:45.059Z,43.12
2023-05-09T09:46:14.010Z,43.09
2023-05-09T09:48:40.717Z,42.55
2023-05-09T09:51:11.546Z,41.94
2023-05-09T09:53:43.373Z,42.80
2023-05-09T09:56:10.709Z,42.46
2023-05-09T09:58:37.450Z,42.05
2023-05-09T10:01:08.482Z,42.56
2023-05-09T10:03:39.328Z,41.73
2023-05-09T10:06:10.722Z,41.23
2023-05-09T10:08:37.430Z,41.71
2023-05-09T10:11:04.191Z,42.24
2023-05-09T10:13:31.709Z,40.80
2023-05-09T10:15:59.701Z,41.97
2023-05-09T10:18:31.284Z,41.35
2023-05-09T10:21:04.196Z,41.18
2023-05-09T10:23:32.824Z,42.09
2023-05-09T10:26:08.769Z,41.81
2023-05-09T10:28:38.882Z,41.53
2023-05-09T10:31:22.727Z,41.02
2023-05-09T10:33:51.195Z,41.06
2023-05-09T10:36:23.896Z,40.62
2023-05-09T10:38:53.815Z,40.27
2023-05-09T10:41:22.216Z,40.70
2023-05-09T10:43:49.282Z,40.39
2023-05-09T10:46:16.559Z,40.59
2023-05-09T10:48:44.813Z,40.91
2023-05-09T10:51:12.812Z,39.84
2023-05-09T10:53:51.688Z,39.96
2023-05-09T10:56:36.239Z,40.29
2023-05-09T10:59:03.002Z,39.57
2023-05-09T11:01:39.501Z,41.03
2023-05-09T11:04:11.588Z,40.22
2023-05-09T11:06:43.622Z,40.01
2023-05-09T11:09:28.568Z,39.60
2023-05-09T11:11:58.002Z,40.05
2023-05-09T11:14:30.734Z,39.19
2023-05-09T11:16:59.665Z,39.38
2023-05-09T11:19:48.038Z,38.96
2023-05-09T11:22:16.981Z,39.03
2023-05-09T11:24:48.554Z,39.05
2023-05-09T11:27:26.653Z,39.55
2023-05-09T11:29:56.255Z,39.59
2023-05-09T11:35:34.973Z,38.53
2023-05-09T11:38:04.364Z,38.89
2023-05-09T11:40:32.369Z,39.66
2023-05-09T11:43:00.348Z,39.02
2023-05-09T11:45:31.125Z,38.74
2023-05-09T11:47:58.502Z,38.78
2023-05-09T11:50:25.616Z,38.84
2023-05-09T11:52:54.232Z,37.93
2023-05-09T11:55:22.878Z,39.02
2023-05-09T11:57:51.917Z,38.60
2023-05-09T12:00:23.682Z,38.39
2023-05-09T12:02:51.366Z,38.69
2023-05-09T12:05:20.945Z,38.21
2023-05-09T12:07:48.420Z,38.59
2023-05-09T12:10:19.272Z,38.01
2023-05-09T12:12:51.111Z,38.31
2023-05-09T12:15:18.601Z,38.44
2023-05-09T12:17:47.671Z,38.39
2023-05-09T12:20:16.451Z,37.91
2023-05-09T12:22:44.180Z,38.08
2023-05-09T12:25:12.165Z,38.21
2023-05-09T12:27:40.885Z,37.32
2023-05-09T12:30:10.594Z,38.23
2023-05-09T12:32:40.448Z,38.50
2023-05-09T12:35:09.610Z,37.83
2023-05-09T12:37:36.565Z,37.78
2023-05-09T12:40:04.875Z,36.91
2023-05-09T12:42:32.692Z,38.30
2023-05-09T12:45:01.543Z,38.06
2023-05-09T12:47:29.625Z,37.19
2023-05-09T12:50:04.719Z,37.68
2023-05-09T12:52:46.930Z,36.81
2023-05-09T12:55:21.229Z,36.58
2023-05-09T12:58:01.913Z,36.87
2023-05-09T13:00:29.382Z,37.94
2023-05-09T13:02:56.256Z,36.77
2023-05-09T13:05:23.661Z,35.95
2023-05-09T13:07:54.737Z,35.94
2023-05-09T13:10:26.140Z,36.70
2023-05-09T13:12:53.473Z,35.94
2023-05-09T13:15:22.580Z,35.93
2023-05-09T13:17:51.091Z,36.06
2023-05-09T13:20:18.801Z,36.36
2023-05-09T13:22:46.633Z,35.15
2023-05-09T13:25:13.504Z,35.42
2023-05-09T13:27:40.155Z,36.08
2023-05-09T13:30:10.030Z,36.14
2023-05-09T13:32:37.012Z,35.03
2023-05-09T13:35:06.799Z,35.80
2023-05-09T13:37:34.410Z,35.63
2023-05-09T13:40:01.034Z,35.10
2023-05-09T13:42:28.458Z,35.48
2023-05-09T13:44:55.092Z,34.62
2023-05-09T13:47:21.799Z,35.31
2023-05-09T13:49:48.522Z,35.00
2023-05-09T13:52:16.235Z,34.95
2023-05-09T13:54:43.166Z,36.12
2023-05-09T13:57:10.234Z,34.74
2023-05-09T13:59:37.384Z,36.32
2023-05-09T14:02:04.469Z,35.72
2023-05-09T14:04:34.650Z,36.30
2023-05-09T14:07:01.482Z,35.86
2023-05-09T14:09:29.583Z,35.50
2023-05-09T14:11:57.176Z,35.25
2023-05-09T14:14:25.054Z,35.63
2023-05-09T14:16:51.792Z,34.92
2023-05-09T14:19:18.526Z,36.08
2023-05-09T14:21:48.386Z,36.05
2023-05-09T14:24:16.300Z,35.19
2023-05-09T14:26:43.774Z,35.16
2023-05-09T14:29:11.165Z,35.39
2023-05-09T14:31:38.159Z,35.38
2023-05-09T14:34:05.427Z,35.72
2023-05-09T14:36:32.920Z,35.43
2023-05-09T14:38:59.626Z,36.05
2023-05-09T14:41:26.879Z,35.21
2023-05-09T14:43:53.508Z,36.12
2023-05-09T14:46:20.273Z,35.35
2023-05-09T14:48:46.977Z,35.87
2023-05-09T14:51:14.364Z,35.82
2023-05-09T14:53:41.878Z,35.98
2023-05-09T14:56:11.416Z,35.92
2023-05-09T14:58:38.247Z,36.05
2023-05-09T15:01:05.063Z,36.57
2023-05-09T15:03:31.969Z,36.72
2023-05-09T15:05:59.234Z,37.06
2023-05-09T15:08:26.212Z,37.07
2023-05-09T15:10:53.111Z,36.88
2023-05-09T15:13:19.920Z,37.10
2023-05-09T15:15:47.286Z,37.22
2023-05-09T15:18:16.460Z,37.36
2023-05-09T15:20:43.597Z,36.27
2023-05-09T15:23:12.150Z,37.00
2023-05-09T15:25:43.490Z,36.73
2023-05-09T15:28:10.116Z,37.21
2023-05-09T15:30:38.902Z,37.31
2023-05-09T15:33:05.609Z,37.27
2023-05-09T15:35:32.402Z,37.09
2023-05-09T15:37:59.458Z,37.45
2023-05-09T15:40:27.965Z,37.20
2023-05-09T15:42:54.553Z,37.37
2023-05-09T15:45:21.169Z,37.44
2023-05-09T15:47:48.399Z,37.42
2023-05-09T15:50:15.264Z,37.54
2023-05-09T15:52:42.057Z,37.80
2023-05-09T15:55:10.316Z,38.59
2023-05-09T15:57:36.970Z,38.90
2023-05-09T16:00:05.599Z,38.87
2023-05-09T16:02:32.360Z,38.49
2023-05-09T16:04:59.021Z,38.61
2023-05-09T16:07:26.829Z,38.54
2023-05-09T16:09:53.493Z,39.33
2023-05-09T16:12:20.154Z,38.92
2023-05-09T16:14:46.794Z,39.19
2023-05-09T16:17:13.473Z,39.58
2023-05-09T16:19:40.543Z,39.75
2023-05-09T16:22:07.385Z,39.92
2023-05-09T16:24:34.116Z,39.60
2023-05-09T16:27:00.745Z,39.62
2023-05-09T16:29:28.509Z,40.16
2023-05-09T16:31:55.227Z,39.66
2023-05-09T16:34:21.904Z,39.89
2023-05-09T16:36:48.575Z,40.52
2023-05-09T16:39:15.328Z,40.18
2023-05-09T16:41:42.092Z,40.29
2023-05-09T16:44:08.957Z,40.61
2023-05-09T16:46:35.593Z,40.56
2023-05-09T16:49:02.386Z,40.82
2023-05-09T16:51:29.075Z,40.98
2023-05-09T16:53:55.676Z,41.46
2023-05-09T16:56:22.621Z,41.42
2023-05-09T16:58:49.974Z,41.18
2023-05-09T17:01:16.770Z,41.38
2023-05-09T17:03:43.506Z,41.60
2023-05-09T17:06:10.408Z,41.89
2023-05-09T17:08:37.046Z,42.11
2023-05-09T17:11:05.433Z,41.58
2023-05-09T17:13:32.096Z,41.97
2023-05-09T17:15:58.799Z,41.99
2023-05-09T17:18:35.951Z,42.02
2023-05-09T17:21:04.754Z,42.09
2023-05-09T17:23:31.923Z,42.68
2023-05-09T17:25:58.792Z,43.17
2023-05-09T17:28:25.498Z,42.91
2023-05-09T17:30:52.089Z,43.03
2023-05-09T17:33:19.354Z,43.39
2023-05-09T17:35:49.386Z,43.29
2023-05-09T17:38:16.123Z,43.36
2023-05-09T17:40:43.412Z,43.66
2023-05-09T17:43:10.674Z,44.15
2023-05-09T17:45:38.038Z,43.96
2023-05-09T17:48:04.856Z,43.95
2023-05-09T17:50:31.647Z,44.16
2023-05-09T17:52:58.696Z,44.22
2023-05-09T17:55:25.337Z,44.42
2023-05-09T17:57:52.340Z,44.42
2023-05-09T18:00:19.740Z,44.52
2023-05-09T18:02:48.120Z,44.49
2023-05-09T18:05:14.964Z,45.33
2023-05-09T18:07:41.545Z,45.38
2023-05-09T18:10:08.954Z,45.26
2023-05-09T18:12:37.231Z,44.98
2023-05-09T18:15:05.005Z,44.80
2023-05-09T18:17:31.881Z,44.99
2023-05-09T18:19:58.754Z,44.73
2023-05-09T18:22:25.593Z,45.43
2023-05-09T18:24:52.672Z,45.39
2023-05-09T18:27:19.265Z,45.83
2023-05-09T18:29:47.568Z,45.23
2023-05-09T18:32:14.343Z,45.86
2023-05-09T18:34:41.650Z,45.58
2023-05-09T18:37:08.576Z,45.90
2023-05-09T18:39:35.229Z,45.74
2023-05-09T18:42:01.963Z,46.34
2023-05-09T18:44:29.775Z,46.98
2023-05-09T18:46:58.024Z,47.00
2023-05-09T18:49:27.818Z,46.96
2023-05-09T18:51:56.393Z,46.50
2023-05-09T18:54:23.172Z,46.73
2023-05-09T18:56:49.779Z,46.61
2023-05-09T18:59:17.335Z,46.42
2023-05-09T19:01:44.186Z,46.25
2023-05-09T19:04:11.038Z,46.76
2023-05-09T19:06:37.815Z,46.64
2023-05-09T19:09:04.775Z,46.51
2023-05-09T19:11:31.696Z,46.40
2023-05-09T19:13:58.354Z,47.21
2023-05-09T19:16:26.666Z,46.87
2023-05-09T19:18:59.618Z,47.38
2023-05-09T19:21:26.329Z,47.30
2023-05-09T19:23:53.122Z,47.17
2023-05-09T19:26:20.034Z,46.63
2023-05-09T19:28:47.172Z,46.62
2023-05-09T19:31:15.506Z,46.40
2023-05-09T19:33:45.658Z,46.73
2023-05-09T19:36:13.070Z,46.53
2023-05-09T19:38:40.143Z,46.64
2023-05-09T19:41:06.841Z,46.53
2023-05-09T19:43:33.476Z,46.82
2023-05-09T19:46:00.203Z,46.56
2023-05-09T19:48:26.914Z,47.02
2023-05-09T19:51:00.464Z,46.63
2023-05-09T19:53:27.100Z,46.46
2023-05-09T19:55:53.777Z,46.27
2023-05-09T19:58:20.453Z,46.20
2023-05-09T20:00:48.252Z,46.70
2023-05-09T20:03:15.018Z,46.97
2023-05-09T20:05:41.706Z,47.12
2023-05-09T20:08:08.503Z,46.44
2023-05-09T20:10:35.497Z,46.50
2023-05-09T20:13:03.968Z,46.32
2023-05-09T20:15:31.220Z,46.25
2023-05-09T20:17:58.465Z,45.70
2023-05-09T20:20:25.289Z,46.21
2023-05-09T20:22:51.945Z,46.07
2023-05-09T20:25:18.715Z,45.68
2023-05-09T20:27:45.311Z,45.51
2023-05-09T20:30:12.292Z,45.19
2023-05-09T20:32:38.927Z,45.27
2023-05-09T20:35:06.398Z,45.16
2023-05-09T20:37:33.088Z,45.00
2023-05-09T20:40:01.804Z,44.89
2023-05-09T20:42:28.508Z,45.14
2023-05-09T20:44:55.253Z,44.71
2023-05-09T20:47:21.949Z,45.81
2023-05-09T20:49:48.574Z,45.61
2023-05-09T20:52:15.240Z,44.80
2023-05-09T20:54:42.254Z,45.72
2023-05-09T20:57:08.919Z,45.42
2023-05-09T20:59:35.584Z,47.48
2023-05-09T21:02:02.872Z,46.29
2023-05-09T21:04:29.493Z,45.26
2023-05-09T21:06:56.253Z,45.95
2023-05-09T21:09:23.035Z,46.42
2023-05-09T21:11:49.670Z,47.19
2023-05-09T21:14:16.343Z,47.41
2023-05-09T21:16:43.999Z,46.99
2023-05-09T21:19:10.909Z,46.49
2023-05-09T21:21:37.618Z,46.54
2023-05-09T21:24:09.020Z,46.18
2023-05-09T21:26:36.428Z,46.25
2023-05-09T21:29:03.247Z,46.27
2023-05-09T21:31:29.897Z,46.71
2023-05-09T21:33:56.648Z,46.96
2023-05-09T21:36:23.232Z,46.16
2023-05-09T21:38:49.912Z,46.52
2023-05-09T21:41:16.988Z,46.23
2023-05-09T21:43:43.753Z,46.23
2023-05-09T21:46:10.508Z,46.38
2023-05-09T21:48:37.174Z,47.27
2023-05-09T21:51:04.196Z,47.44
2023-05-09T21:53:30.874Z,46.77
2023-05-09T21:55:57.452Z,47.32
2023-05-09T21:58:24.062Z,46.81
2023-05-09T22:00:50.673Z,48.37
2023-05-09T22:03:17.511Z,47.40
2023-05-09T22:05:44.191Z,48.00
2023-05-09T22:08:10.893Z,47.93
2023-05-09T22:10:37.835Z,48.86
2023-05-09T22:13:04.647Z,50.29
2023-05-09T22:15:31.335Z,51.05
2023-05-09T22:17:58.007Z,50.53
2023-05-09T22:20:24.716Z,49.27
2023-05-09T22:22:51.430Z,48.93
2023-05-09T22:25:18.134Z,49.91
2023-05-09T22:27:44.742Z,49.05
2023-05-09T22:30:12.535Z,49.59
2023-05-09T22:32:39.828Z,49.65
2023-05-09T22:35:07.009Z,50.21
2023-05-09T22:37:33.785Z,49.40
2023-05-09T22:40:03.247Z,50.04
2023-05-09T22:42:29.852Z,50.52
2023-05-09T22:44:56.533Z,49.96
2023-05-09T22:47:23.313Z,49.81
2023-05-09T22:49:50.533Z,49.93
2023-05-09T22:52:17.492Z,50.28
2023-05-09T22:54:44.238Z,50.56
2023-05-09T22:57:11.196Z,50.49
2023-05-09T22:59:37.868Z,51.03
2023-05-09T23:02:04.880Z,50.38
2023-05-09T23:04:31.525Z,50.49
2023-05-09T23:06:58.193Z,50.82
2023-05-09T23:09:24.825Z,51.08
2023-05-09T23:11:51.912Z,51.89
2023-05-09T23:14:18.681Z,51.72
2023-05-09T23:16:45.422Z,51.84
2023-05-09T23:19:12.055Z,51.91
2023-05-09T23:21:38.728Z,52.65
2023-05-09T23:24:05.573Z,53.72
2023-05-09T23:26:32.771Z,52.85
2023-05-09T23:28:59.435Z,52.95
2023-05-09T23:31:26.068Z,52.93
2023-05-09T23:33:52.789Z,53.38
2023-05-09T23:36:19.428Z,53.27
2023-05-09T23:38:46.041Z,53.66
2023-05-09T23:41:12.791Z,54.45
2023-05-09T23:43:39.592Z,55.99
2023-05-09T23:46:06.267Z,56.98
2023-05-09T23:48:33.002Z,58.06
2023-05-09T23:50:59.616Z,57.79
2023-05-09T23:53:26.421Z,57.62
2023-05-09T23:55:53.096Z,56.99
2023-05-09T23:58:19.714Z,57.25
